Time,TemperatureF,DewpointF,PressureIn,WindDirection,WindDirectionDegrees,WindSpeedMPH,WindSpeedGustMPH,Humidity,HourlyPrecipIn,Conditions,Clouds,dailyrainin,SoftwareType,DateUTC
2013-05-08 00:00:00,59.3,53.8,30.15,West,271,0.0,0.0,82,0.00,,,0.00,Wunderground PWS Mod,2013-05-08 04:00:00,
2013-05-08 00:11:00,59.2,54.0,30.15,West,271,0.0,0.0,83,0.00,,,0.00,Wunderground PWS Mod,2013-05-08 04:11:00,
2013-05-08 00:15:00,58.9,53.7,30.14,N/A,-737280,0.0,0.0,83,0.00,,,0.00,Wunderground PWS Mod,2013-05-08 04:15:00,
2013-05-08 00:20:00,59.0,53.8,30.14,West,271,0.0,0.0,83,0.00,,,0.00,Wunderground PWS Mod,2013-05-08 04:20:00,
2013-05-08 00:30:00,58.9,53.7,30.14,West,271,0.0,0.0,83,0.00,,,0.00,Wunderground PWS Mod,2013-05-08 04:30:00,
2013-05-08 00:40:00,58.8,54.0,30.14,West,271,0.0,0.0,84,0.00,,,0.00,Wunderground PWS Mod,2013-05-08 04:40:00,
2013-05-08 00:51:00,58.7,53.9,30.14,West,271,0.0,0.0,84,0.00,,,0.00,Wunderground PWS Mod,2013-05-08 04:51:00,
2013-05-08 01:01:00,58.5,54.0,30.14,West,271,0.0,0.0,85,0.00,,,0.00,Wunderground PWS Mod,2013-05-08 05:01:00,
2013-05-08 01:11:00,58.4,53.9,30.13,West,270,0.0,0.0,85,0.00,,,0.00,Wunderground PWS Mod,2013-05-08 05:11:00,
2013-05-08 01:15:00,58.5,54.3,30.12,N/A,-737280,0.0,0.0,86,0.00,,,0.00,Wunderground PWS Mod,2013-05-08 05:15:00,
2013-05-08 01:20:00,58.4,54.2,30.12,West,271,0.0,0.0,86,0.00,,,0.00,Wunderground PWS Mod,2013-05-08 05:20:00,
2013-05-08 01:30:00,58.4,54.2,30.12,West,271,0.0,0.0,86,0.00,,,0.00,Wunderground PWS Mod,2013-05-08 05:30:00,
2013-05-08 01:41:00,58.4,54.2,30.12,West,271,0.0,0.0,86,0.00,,,0.00,Wunderground PWS Mod,2013-05-08 05:41:00,
2013-05-08 01:50:00,58.6,54.4,30.11,West,271,0.0,0.0,86,0.00,,,0.00,Wunderground PWS Mod,2013-05-08 05:50:00,
2013-05-08 02:01:00,58.6,54.4,30.11,West,271,0.0,0.0,86,0.00,,,0.00,Wunderground PWS Mod,2013-05-08 06:01:00,
2013-05-08 02:11:00,58.4,54.2,30.12,West,271,0.0,0.0,86,0.00,,,0.00,Wunderground PWS Mod,2013-05-08 06:11:00,
2013-05-08 02:15:00,58.0,53.8,30.12,N/A,-737280,0.0,0.0,86,0.00,,,0.00,Wunderground PWS Mod,2013-05-08 06:15:00,
2013-05-08 02:20:00,58.2,54.0,30.12,West,271,0.0,0.0,86,0.00,,,0.00,Wunderground PWS Mod,2013-05-08 06:20:00,
2013-05-08 02:30:00,58.0,53.8,30.12,West,271,0.0,0.0,86,0.00,,,0.00,Wunderground PWS Mod,2013-05-08 06:30:00,
2013-05-08 02:40:00,58.1,54.2,30.12,West,271,0.0,0.0,87,0.00,,,0.00,Wunderground PWS Mod,2013-05-08 06:40:00,
2013-05-08 02:50:00,58.3,54.4,30.12,West,271,0.0,0.0,87,0.00,,,0.00,Wunderground PWS Mod,2013-05-08 06:50:00,
2013-05-08 03:00:00,58.4,54.5,30.11,West,271,0.0,0.0,87,0.00,,,0.00,Wunderground PWS Mod,2013-05-08 07:00:00,
2013-05-08 03:11:00,58.3,54.4,30.11,West,271,0.0,0.0,87,0.00,,,0.00,Wunderground PWS Mod,2013-05-08 07:11:00,
2013-05-08 03:15:00,58.3,54.4,30.11,N/A,-737280,0.0,0.0,87,0.00,,,0.00,Wunderground PWS Mod,2013-05-08 07:15:00,
2013-05-08 03:20:00,58.3,54.4,30.11,West,271,0.0,0.0,87,0.00,,,0.00,Wunderground PWS Mod,2013-05-08 07:20:00,
2013-05-08 03:31:00,58.3,54.4,30.11,West,271,0.0,0.0,87,0.00,,,0.00,Wunderground PWS Mod,2013-05-08 07:31:00,
2013-05-08 03:40:00,58.3,54.4,30.11,West,271,0.0,0.0,87,0.00,,,0.00,Wunderground PWS Mod,2013-05-08 07:40:00,
2013-05-08 03:50:00,58.2,54.3,30.11,West,271,0.0,0.0,87,0.00,,,0.00,Wunderground PWS Mod,2013-05-08 07:50:00,
2013-05-08 04:00:00,58.0,54.5,30.11,West,271,0.0,0.0,88,0.00,,,0.00,Wunderground PWS Mod,2013-05-08 08:00:00,
2013-05-08 04:11:00,57.8,54.3,30.11,West,271,0.0,0.0,88,0.00,,,0.00,Wunderground PWS Mod,2013-05-08 08:11:00,
2013-05-08 04:15:00,57.7,54.2,30.10,N/A,-737280,0.0,0.0,88,0.00,,,0.00,Wunderground PWS Mod,2013-05-08 08:15:00,
2013-05-08 04:21:00,57.8,54.3,30.11,West,271,0.0,0.0,88,0.00,,,0.00,Wunderground PWS Mod,2013-05-08 08:21:00,
2013-05-08 04:30:00,57.8,54.3,30.10,West,271,0.0,0.0,88,0.00,,,0.00,Wunderground PWS Mod,2013-05-08 08:30:00,
2013-05-08 04:41:00,57.6,54.4,30.11,West,271,0.0,0.0,89,0.00,,,0.00,Wunderground PWS Mod,2013-05-08 08:41:00,
2013-05-08 04:50:00,57.4,54.2,30.11,West,271,0.0,0.0,89,0.00,,,0.00,Wunderground PWS Mod,2013-05-08 08:50:00,
2013-05-08 05:00:00,57.2,54.0,30.10,West,271,0.0,0.0,89,0.00,,,0.00,Wunderground PWS Mod,2013-05-08 09:00:00,
2013-05-08 05:11:00,57.1,53.9,30.11,West,271,0.0,0.0,89,0.00,,,0.00,Wunderground PWS Mod,2013-05-08 09:11:00,
2013-05-08 05:15:00,57.0,54.1,30.10,N/A,-737280,0.0,0.0,90,0.00,,,0.00,Wunderground PWS Mod,2013-05-08 09:15:00,
2013-05-08 05:21:00,57.1,54.2,30.10,West,270,0.0,0.0,90,0.00,,,0.00,Wunderground PWS Mod,2013-05-08 09:21:00,
2013-05-08 05:30:00,57.0,54.1,30.11,West,271,0.0,0.0,90,0.00,,,0.00,Wunderground PWS Mod,2013-05-08 09:30:00,
2013-05-08 05:41:00,56.9,54.0,30.11,West,271,0.0,0.0,90,0.00,,,0.00,Wunderground PWS Mod,2013-05-08 09:41:00,
2013-05-08 05:50:00,56.9,54.0,30.11,SSW,207,0.0,0.0,90,0.00,,,0.00,Wunderground PWS Mod,2013-05-08 09:50:00,
2013-05-08 06:00:00,56.8,53.9,30.11,SW,229,0.0,0.0,90,0.00,,,0.00,Wunderground PWS Mod,2013-05-08 10:00:00,
2013-05-08 06:11:00,57.0,54.4,30.12,SW,229,0.0,1.0,91,0.00,,,0.00,Wunderground PWS Mod,2013-05-08 10:11:00,
2013-05-08 06:15:00,57.8,55.2,30.12,N/A,-737280,0.0,0.0,91,0.00,,,0.00,Wunderground PWS Mod,2013-05-08 10:15:00,
2013-05-08 06:20:00,57.5,54.9,30.12,SW,229,0.0,1.0,91,0.00,,,0.00,Wunderground PWS Mod,2013-05-08 10:20:00,
2013-05-08 06:30:00,57.8,55.2,30.12,SW,229,0.0,1.0,91,0.00,,,0.00,Wunderground PWS Mod,2013-05-08 10:30:00,
2013-05-08 06:41:00,58.2,55.6,30.13,SW,229,0.0,1.0,91,0.00,,,0.00,Wunderground PWS Mod,2013-05-08 10:41:00,
2013-05-08 06:50:00,58.7,56.1,30.13,SW,229,0.0,1.0,91,0.00,,,0.00,Wunderground PWS Mod,2013-05-08 10:50:00,
2013-05-08 07:01:00,59.2,56.3,30.13,SW,229,0.0,1.0,90,0.00,,,0.00,Wunderground PWS Mod,2013-05-08 11:01:00,
2013-05-08 07:11:00,59.8,56.6,30.13,SW,229,0.0,0.0,89,0.00,,,0.00,Wunderground PWS Mod,2013-05-08 11:11:00,
2013-05-08 07:15:00,60.9,56.4,30.13,N/A,-737280,0.0,0.0,85,0.00,,,0.00,Wunderground PWS Mod,2013-05-08 11:15:00,
2013-05-08 07:20:00,60.4,56.8,30.13,SW,234,0.0,0.0,88,0.00,,,0.00,Wunderground PWS Mod,2013-05-08 11:20:00,
2013-05-08 07:30:00,60.8,56.6,30.13,NE,46,0.0,0.0,86,0.00,,,0.00,Wunderground PWS Mod,2013-05-08 11:30:00,
2013-05-08 07:41:00,61.2,56.7,30.13,ENE,59,0.0,0.0,85,0.00,,,0.00,Wunderground PWS Mod,2013-05-08 11:41:00,
2013-05-08 07:51:00,61.5,56.9,30.14,ENE,58,0.0,0.0,85,0.00,,,0.00,Wunderground PWS Mod,2013-05-08 11:51:00,
2013-05-08 08:00:00,61.8,57.2,30.14,ENE,65,0.0,0.0,85,0.00,,,0.00,Wunderground PWS Mod,2013-05-08 12:00:00,
2013-05-08 08:11:00,62.1,57.2,30.14,ENE,65,0.0,0.0,84,0.00,,,0.00,Wunderground PWS Mod,2013-05-08 12:11:00,
2013-05-08 08:15:00,62.7,57.5,30.13,N/A,-737280,0.0,0.0,83,0.00,,,0.00,Wunderground PWS Mod,2013-05-08 12:15:00,
2013-05-08 08:20:00,62.4,57.2,30.13,North,11,0.0,0.0,83,0.00,,,0.00,Wunderground PWS Mod,2013-05-08 12:20:00,
2013-05-08 08:30:00,62.6,57.4,30.13,North,11,0.0,0.0,83,0.00,,,0.00,Wunderground PWS Mod,2013-05-08 12:30:00,
2013-05-08 08:40:00,63.0,57.8,30.13,NNE,15,0.0,0.0,83,0.00,,,0.00,Wunderground PWS Mod,2013-05-08 12:40:00,
2013-05-08 08:50:00,63.4,57.8,30.13,East,99,0.0,0.0,82,0.00,,,0.00,Wunderground PWS Mod,2013-05-08 12:50:00,
2013-05-08 09:00:00,63.6,58.0,30.13,SE,124,0.0,0.0,82,0.00,,,0.00,Wunderground PWS Mod,2013-05-08 13:00:00,
2013-05-08 09:11:00,63.4,57.8,30.13,ESE,111,0.0,0.0,82,0.00,,,0.00,Wunderground PWS Mod,2013-05-08 13:11:00,
2013-05-08 09:15:00,63.6,58.0,30.13,N/A,-737280,0.0,0.0,82,0.00,,,0.01,Wunderground PWS Mod,2013-05-08 13:15:00,
2013-05-08 09:21:00,63.4,57.8,30.13,ESE,110,0.0,0.0,82,0.00,,,0.00,Wunderground PWS Mod,2013-05-08 13:21:00,
2013-05-08 09:31:00,63.6,58.0,30.13,SE,138,0.0,0.0,82,0.00,,,0.00,Wunderground PWS Mod,2013-05-08 13:31:00,
2013-05-08 09:41:00,63.5,58.2,30.13,North,9,0.0,0.0,83,0.00,,,0.00,Wunderground PWS Mod,2013-05-08 13:41:00,
2013-05-08 09:51:00,63.4,58.5,30.13,East,82,0.0,0.0,84,0.00,,,0.00,Wunderground PWS Mod,2013-05-08 13:51:00,
2013-05-08 10:00:00,63.2,58.6,30.13,NNE,32,0.0,0.0,85,0.00,,,0.01,Wunderground PWS Mod,2013-05-08 14:00:00,
2013-05-08 10:11:00,63.1,58.5,30.13,NE,49,0.0,0.0,85,0.00,,,0.01,Wunderground PWS Mod,2013-05-08 14:11:00,
2013-05-08 10:15:00,63.4,59.1,30.13,N/A,-737280,0.0,0.0,86,0.02,,,0.02,Wunderground PWS Mod,2013-05-08 14:15:00,
2013-05-08 10:21:00,63.1,58.5,30.13,NE,53,0.0,0.0,85,0.00,,,0.02,Wunderground PWS Mod,2013-05-08 14:21:00,
2013-05-08 10:31:00,63.4,59.1,30.13,NE,52,0.0,0.0,86,0.00,,,0.02,Wunderground PWS Mod,2013-05-08 14:31:00,
2013-05-08 10:41:00,63.7,59.8,30.13,ENE,63,0.0,0.0,87,0.00,,,0.02,Wunderground PWS Mod,2013-05-08 14:41:00,
2013-05-08 10:51:00,64.0,60.1,30.12,NE,39,0.0,0.0,87,0.00,,,0.02,Wunderground PWS Mod,2013-05-08 14:51:00,
2013-05-08 11:01:00,64.2,60.2,30.12,ENE,66,0.0,0.0,87,0.00,,,0.02,Wunderground PWS Mod,2013-05-08 15:01:00,
2013-05-08 11:11:00,64.3,60.3,30.12,NNE,32,0.0,0.0,87,0.00,,,0.02,Wunderground PWS Mod,2013-05-08 15:11:00,
2013-05-08 11:15:00,63.9,60.0,30.11,N/A,-737280,0.0,0.0,87,0.04,,,0.12,Wunderground PWS Mod,2013-05-08 15:15:00,
2013-05-08 11:20:00,64.3,60.3,30.12,NNE,32,0.0,0.0,87,0.00,,,0.03,Wunderground PWS Mod,2013-05-08 15:20:00,
2013-05-08 11:31:00,63.9,60.0,30.11,NNE,32,0.0,0.0,87,0.18,,,0.06,Wunderground PWS Mod,2013-05-08 15:31:00,
2013-05-08 11:41:00,63.6,60.0,30.11,NNE,32,0.0,0.0,88,0.20,,,0.08,Wunderground PWS Mod,2013-05-08 15:41:00,
2013-05-08 11:51:00,63.4,60.1,30.11,NNE,32,0.0,0.0,89,0.18,,,0.11,Wunderground PWS Mod,2013-05-08 15:51:00,
2013-05-08 12:01:00,63.4,60.4,30.10,NNE,31,0.0,0.0,90,0.08,,,0.12,Wunderground PWS Mod,2013-05-08 16:01:00,
2013-05-08 12:11:00,63.6,60.6,30.10,North,11,0.0,0.0,90,0.04,,,0.12,Wunderground PWS Mod,2013-05-08 16:11:00,
2013-05-08 12:15:00,63.9,60.9,30.09,N/A,-737280,0.0,0.0,90,0.08,,,0.18,Wunderground PWS Mod,2013-05-08 16:15:00,
2013-05-08 12:20:00,63.8,60.8,30.09,North,350,0.0,0.0,90,0.00,,,0.13,Wunderground PWS Mod,2013-05-08 16:20:00,
2013-05-08 12:30:00,63.9,60.9,30.09,North,350,0.0,0.0,90,0.05,,,0.14,Wunderground PWS Mod,2013-05-08 16:30:00,
2013-05-08 12:41:00,64.3,61.6,30.08,NNW,335,0.0,0.0,91,0.11,,,0.17,Wunderground PWS Mod,2013-05-08 16:41:00,
2013-05-08 12:51:00,64.7,61.7,30.08,NE,35,0.0,0.0,90,0.08,,,0.18,Wunderground PWS Mod,2013-05-08 16:51:00,
2013-05-08 13:01:00,64.9,62.2,30.07,NE,35,0.0,0.0,91,0.05,,,0.18,Wunderground PWS Mod,2013-05-08 17:01:00,
2013-05-08 13:11:00,64.9,61.9,30.07,NE,35,0.0,0.0,90,0.00,,,0.18,Wunderground PWS Mod,2013-05-08 17:11:00,
2013-05-08 13:15:00,65.3,62.3,30.06,N/A,-737280,0.0,0.0,90,0.04,,,0.18,Wunderground PWS Mod,2013-05-08 17:15:00,
2013-05-08 13:21:00,65.1,62.1,30.07,NE,35,0.0,0.0,90,0.00,,,0.18,Wunderground PWS Mod,2013-05-08 17:21:00,
2013-05-08 13:31:00,65.3,62.3,30.06,NE,34,0.0,0.0,90,0.00,,,0.18,Wunderground PWS Mod,2013-05-08 17:31:00,
2013-05-08 13:41:00,65.7,62.7,30.06,NE,34,0.0,0.0,90,0.00,,,0.18,Wunderground PWS Mod,2013-05-08 17:41:00,
2013-05-08 13:51:00,65.6,61.9,30.06,North,355,0.0,0.0,88,0.00,,,0.18,Wunderground PWS Mod,2013-05-08 17:51:00,
2013-05-08 14:00:00,65.6,62.3,30.06,North,355,0.0,0.0,89,0.00,,,0.18,Wunderground PWS Mod,2013-05-08 18:00:00,
2013-05-08 14:11:00,65.4,62.4,30.06,North,355,0.0,0.0,90,0.00,,,0.18,Wunderground PWS Mod,2013-05-08 18:11:00,
2013-05-08 14:15:00,65.7,62.4,30.04,N/A,-737280,0.0,0.0,89,0.00,,,0.20,Wunderground PWS Mod,2013-05-08 18:15:00,
2013-05-08 14:21:00,65.6,62.6,30.05,North,355,0.0,0.0,90,0.00,,,0.18,Wunderground PWS Mod,2013-05-08 18:21:00,
2013-05-08 14:31:00,65.7,62.4,30.04,North,355,0.0,0.0,89,0.00,,,0.18,Wunderground PWS Mod,2013-05-08 18:31:00,
2013-05-08 14:41:00,65.7,62.0,30.04,North,355,0.0,0.0,88,0.00,,,0.18,Wunderground PWS Mod,2013-05-08 18:41:00,
2013-05-08 14:51:00,65.6,61.9,30.03,North,355,0.0,0.0,88,0.00,,,0.18,Wunderground PWS Mod,2013-05-08 18:51:00,
2013-05-08 15:01:00,65.4,62.1,30.03,North,355,0.0,0.0,89,0.08,,,0.19,Wunderground PWS Mod,2013-05-08 19:01:00,
2013-05-08 15:11:00,65.0,61.7,30.03,North,355,0.0,0.0,89,0.21,,,0.23,Wunderground PWS Mod,2013-05-08 19:11:00,
2013-05-08 15:15:00,64.3,61.3,30.02,N/A,-737280,0.0,0.0,90,0.10,,,0.35,Wunderground PWS Mod,2013-05-08 19:15:00,
2013-05-08 15:20:00,64.6,61.6,30.03,North,5,0.0,0.0,90,0.11,,,0.25,Wunderground PWS Mod,2013-05-08 19:20:00,
2013-05-08 15:31:00,64.3,61.3,30.02,ESE,111,0.0,0.0,90,0.22,,,0.28,Wunderground PWS Mod,2013-05-08 19:31:00,
2013-05-08 15:41:00,64.0,61.0,30.03,NNE,31,0.0,0.0,90,0.24,,,0.34,Wunderground PWS Mod,2013-05-08 19:41:00,
2013-05-08 15:51:00,64.1,61.4,30.02,ESE,103,0.0,0.0,91,0.10,,,0.35,Wunderground PWS Mod,2013-05-08 19:51:00,
2013-05-08 16:01:00,64.3,61.6,30.02,ESE,119,1.0,1.0,91,0.04,,,0.35,Wunderground PWS Mod,2013-05-08 20:01:00,
2013-05-08 16:11:00,65.0,62.3,30.02,ESE,113,0.0,5.0,91,0.00,,,0.35,Wunderground PWS Mod,2013-05-08 20:11:00,
2013-05-08 16:15:00,65.7,62.4,30.01,ESE,113,0.0,5.0,89,0.07,,,0.35,Wunderground PWS Mod,2013-05-08 20:15:00,
2013-05-08 16:20:00,65.5,62.5,30.02,NNE,14,1.0,5.0,90,0.00,,,0.35,Wunderground PWS Mod,2013-05-08 20:20:00,
2013-05-08 16:30:00,65.7,62.4,30.01,East,96,0.0,5.0,89,0.00,,,0.35,Wunderground PWS Mod,2013-05-08 20:30:00,
2013-05-08 16:41:00,65.8,62.1,30.01,North,11,1.0,1.0,88,0.00,,,0.35,Wunderground PWS Mod,2013-05-08 20:41:00,
2013-05-08 16:51:00,65.8,62.5,30.01,SE,129,0.0,5.0,89,0.00,,,0.35,Wunderground PWS Mod,2013-05-08 20:51:00,
2013-05-08 17:01:00,65.8,62.1,30.01,SE,129,0.0,5.0,88,0.00,,,0.35,Wunderground PWS Mod,2013-05-08 21:01:00,
2013-05-08 17:11:00,66.0,62.3,30.01,ESE,120,0.0,4.0,88,0.00,,,0.35,Wunderground PWS Mod,2013-05-08 21:11:00,
2013-05-08 17:15:00,66.3,62.6,30.00,ESE,113,0.0,3.0,88,0.00,,,0.35,Wunderground PWS Mod,2013-05-08 21:15:00,
2013-05-08 17:20:00,66.3,62.6,30.01,NNE,13,0.0,4.0,88,0.00,,,0.35,Wunderground PWS Mod,2013-05-08 21:20:00,
2013-05-08 17:30:00,66.3,63.0,30.00,NNE,13,0.0,4.0,89,0.00,,,0.35,Wunderground PWS Mod,2013-05-08 21:30:00,
2013-05-08 17:40:00,66.3,62.3,30.00,NNE,13,0.0,4.0,87,0.00,,,0.35,Wunderground PWS Mod,2013-05-08 21:40:00,
2013-05-08 17:50:00,66.3,62.3,30.00,NNE,13,0.0,4.0,87,0.00,,,0.35,Wunderground PWS Mod,2013-05-08 21:50:00,
2013-05-08 18:00:00,66.2,61.9,30.00,NNE,13,0.0,4.0,86,0.00,,,0.35,Wunderground PWS Mod,2013-05-08 22:00:00,
2013-05-08 18:11:00,66.1,61.5,30.00,NNE,13,0.0,1.0,85,0.00,,,0.35,Wunderground PWS Mod,2013-05-08 22:11:00,
2013-05-08 18:15:00,65.7,61.1,30.00,NNE,23,0.0,1.0,85,0.00,,,0.35,Wunderground PWS Mod,2013-05-08 22:15:00,
2013-05-08 18:20:00,65.9,61.6,29.99,NNE,13,0.0,1.0,86,0.00,,,0.35,Wunderground PWS Mod,2013-05-08 22:20:00,
2013-05-08 18:30:00,65.7,61.1,30.00,NNE,13,0.0,1.0,85,0.00,,,0.35,Wunderground PWS Mod,2013-05-08 22:30:00,
2013-05-08 18:40:00,65.4,60.8,29.99,NNE,13,0.0,1.0,85,0.00,,,0.35,Wunderground PWS Mod,2013-05-08 22:40:00,
2013-05-08 18:50:00,65.3,61.0,29.99,NNE,13,0.0,1.0,86,0.00,,,0.35,Wunderground PWS Mod,2013-05-08 22:50:00,
2013-05-08 19:00:00,65.1,60.5,29.99,NNE,13,0.0,1.0,85,0.00,,,0.35,Wunderground PWS Mod,2013-05-08 23:00:00,
2013-05-08 19:11:00,65.0,60.4,29.99,NNE,13,0.0,0.0,85,0.00,,,0.35,Wunderground PWS Mod,2013-05-08 23:11:00,
2013-05-08 19:15:00,64.4,59.8,30.00,NNE,23,0.0,1.0,85,0.00,,,0.35,Wunderground PWS Mod,2013-05-08 23:15:00,
2013-05-08 19:20:00,64.7,60.1,30.00,NNE,13,0.0,0.0,85,0.00,,,0.35,Wunderground PWS Mod,2013-05-08 23:20:00,
2013-05-08 19:30:00,64.4,59.5,30.00,NNE,13,0.0,0.0,84,0.00,,,0.35,Wunderground PWS Mod,2013-05-08 23:30:00,
2013-05-08 19:40:00,64.3,59.4,30.00,West,261,0.0,0.0,84,0.00,,,0.35,Wunderground PWS Mod,2013-05-08 23:40:00,
2013-05-08 19:50:00,64.1,59.5,30.00,West,261,0.0,0.0,85,0.00,,,0.35,Wunderground PWS Mod,2013-05-08 23:50:00,
2013-05-08 20:00:00,63.7,59.1,30.01,West,261,0.0,0.0,85,0.00,,,0.35,Wunderground PWS Mod,2013-05-09 00:00:00,
2013-05-08 20:11:00,63.3,59.0,30.00,West,261,0.0,2.0,86,0.00,,,0.35,Wunderground PWS Mod,2013-05-09 00:11:00,
2013-05-08 20:15:00,62.7,58.8,30.01,N/A,-737280,0.0,0.0,87,0.00,,,0.35,Wunderground PWS Mod,2013-05-09 00:15:00,
2013-05-08 20:21:00,62.9,59.0,30.01,West,261,0.0,2.0,87,0.00,,,0.35,Wunderground PWS Mod,2013-05-09 00:21:00,
2013-05-08 20:30:00,62.7,58.8,30.01,West,261,0.0,2.0,87,0.00,,,0.35,Wunderground PWS Mod,2013-05-09 00:30:00,
2013-05-08 20:40:00,62.4,58.5,30.01,West,261,0.0,2.0,87,0.00,,,0.35,Wunderground PWS Mod,2013-05-09 00:40:00,
2013-05-08 20:50:00,62.0,58.1,30.01,West,261,0.0,2.0,87,0.00,,,0.35,Wunderground PWS Mod,2013-05-09 00:50:00,
2013-05-08 21:00:00,61.9,58.3,30.02,West,261,0.0,2.0,88,0.00,,,0.35,Wunderground PWS Mod,2013-05-09 01:00:00,
2013-05-08 21:11:00,61.9,58.3,30.02,West,261,0.0,0.0,88,0.00,,,0.35,Wunderground PWS Mod,2013-05-09 01:11:00,
2013-05-08 21:15:00,62.0,58.7,30.03,N/A,-737280,0.0,0.0,89,0.00,,,0.35,Wunderground PWS Mod,2013-05-09 01:15:00,
2013-05-08 21:21:00,62.0,58.7,30.02,West,261,0.0,0.0,89,0.00,,,0.35,Wunderground PWS Mod,2013-05-09 01:21:00,
2013-05-08 21:31:00,62.0,58.7,30.03,West,261,0.0,0.0,89,0.00,,,0.35,Wunderground PWS Mod,2013-05-09 01:31:00,
2013-05-08 21:40:00,62.0,58.7,30.03,West,261,0.0,0.0,89,0.00,,,0.35,Wunderground PWS Mod,2013-05-09 01:40:00,
2013-05-08 21:50:00,62.0,58.7,30.03,West,261,0.0,0.0,89,0.00,,,0.35,Wunderground PWS Mod,2013-05-09 01:50:00,
2013-05-08 22:00:00,62.0,58.4,30.03,West,261,0.0,0.0,88,0.00,,,0.35,Wunderground PWS Mod,2013-05-09 02:00:00,
2013-05-08 22:11:00,61.9,58.3,30.04,West,261,0.0,0.0,88,0.00,,,0.35,Wunderground PWS Mod,2013-05-09 02:11:00,
2013-05-08 22:15:00,61.8,57.9,30.04,West,270,0.0,1.0,87,0.00,,,0.35,Wunderground PWS Mod,2013-05-09 02:15:00,
2013-05-08 22:21:00,61.9,58.0,30.04,West,261,0.0,0.0,87,0.00,,,0.35,Wunderground PWS Mod,2013-05-09 02:21:00,
2013-05-08 22:30:00,61.8,57.9,30.04,West,261,0.0,0.0,87,0.00,,,0.35,Wunderground PWS Mod,2013-05-09 02:30:00,
2013-05-08 22:41:00,61.8,58.2,30.04,West,261,0.0,0.0,88,0.00,,,0.35,Wunderground PWS Mod,2013-05-09 02:41:00,
2013-05-08 22:51:00,61.6,58.0,30.04,West,261,0.0,0.0,88,0.00,,,0.35,Wunderground PWS Mod,2013-05-09 02:51:00,
2013-05-08 23:00:00,61.2,57.6,30.04,West,261,0.0,0.0,88,0.00,,,0.35,Wunderground PWS Mod,2013-05-09 03:00:00,
2013-05-08 23:11:00,60.9,57.3,30.04,West,261,0.0,1.0,88,0.00,,,0.35,Wunderground PWS Mod,2013-05-09 03:11:00,
2013-05-08 23:15:00,60.4,56.8,30.03,N/A,-737280,0.0,0.0,88,0.00,,,0.35,Wunderground PWS Mod,2013-05-09 03:15:00,
2013-05-08 23:20:00,60.7,57.1,30.03,West,261,0.0,1.0,88,0.00,,,0.35,Wunderground PWS Mod,2013-05-09 03:20:00,
2013-05-08 23:30:00,60.4,56.8,30.03,West,261,0.0,1.0,88,0.00,,,0.35,Wunderground PWS Mod,2013-05-09 03:30:00,
2013-05-08 23:40:00,60.1,56.5,30.03,West,261,0.0,1.0,88,0.00,,,0.35,Wunderground PWS Mod,2013-05-09 03:40:00,
2013-05-08 23:50:00,59.7,56.1,30.03,West,261,0.0,1.0,88,0.00,,,0.35,Wunderground PWS Mod,2013-05-09 03:50:00,